Time;durP1;ratioP1;P1;durP2;ratioP2;P2;SDS_P1;SDS_P2;PMS_P1;PMS_P2;Temp;Humidity;BMP_temperature;BMP_pressure;BME280_temperature;BME280_humidity;BME280_pressure;Samples;Min_cycle;Max_cycle;Signal;HPM_P1;HPM_P2
2023/10/05 00:02:36;;;;;;;5.5;2.4;;;;;;;9.11;85.55;;;;;
2023/10/05 00:12:36;;;;;;;6.3;2.4;;;;;;;9.05;85.83;;;;;
2023/10/05 00:22:36;;;;;;;6.3;2.4;;;;;;;9.06;86.23;;;;;
2023/10/05 00:32:39;;;;;;;6.3;2.4;;;;;;;9.04;85.95;;;;;
2023/10/05 00:43:36;;;;;;;6.6;2.7;;;;;;;9.03;85.6;;;;;
2023/10/05 00:53:36;;;;;;;6.6;2.7;;;;;;;8.92;85.24;;;;;
2023/10/05 01:03:59;;;;;;;6.6;2.7;;;;;;;8.75;84.87;;;;;
2023/10/05 01:14:36;;;;;;;6.5;3.4;;;;;;;8.58;84.77;;;;;
2023/10/05 01:24:36;;;;;;;6.5;3.4;;;;;;;8.49;85.49;;;;;
2023/10/05 01:35:38;;;;;;;6.5;3.4;;;;;;;8.45;85.34;;;;;
2023/10/05 01:45:38;;;;;;;6.9;3.3;;;;;;;8.36;85.49;;;;;
2023/10/05 01:56:37;;;;;;;6.9;3.3;;;;;;;8.33;85.4;;;;;
2023/10/05 02:07:38;;;;;;;7.1;3.4;;;;;;;8.31;85.47;;;;;
2023/10/05 02:17:41;;;;;;;7.1;3.4;;;;;;;8.28;85.48;;;;;
2023/10/05 02:28:39;;;;;;;7.1;3.4;;;;;;;8.27;85.91;;;;;
2023/10/05 02:39:37;;;;;;;5.7;2.9;;;;;;;8.31;86.61;;;;;
2023/10/05 02:49:39;;;;;;;5.7;2.9;;;;;;;8.38;86.27;;;;;
2023/10/05 02:59:37;;;;;;;5.7;2.9;;;;;;;8.36;86.34;;;;;
2023/10/05 03:10:37;;;;;;;6.1;2.8;;;;;;;8.41;86.66;;;;;
2023/10/05 03:20:36;;;;;;;6.1;2.8;;;;;;;8.48;86.32;;;;;
2023/10/05 03:30:36;;;;;;;6.1;2.8;;;;;;;8.47;86.17;;;;;
2023/10/05 03:41:38;;;;;;;6.3;3;;;;;;;8.28;86.83;;;;;
2023/10/05 03:51:37;;;;;;;6.3;3;;;;;;;8.28;86.78;;;;;
2023/10/05 04:01:36;;;;;;;6.3;3;;;;;;;8.18;86.5;;;;;
2023/10/05 04:12:37;;;;;;;6.3;3;;;;;;;8.04;86.69;;;;;
2023/10/05 04:23:36;;;;;;;6.3;3;;;;;;;7.85;87.1;;;;;
2023/10/05 04:34:36;;;;;;;6.3;3;;;;;;;7.81;87.97;;;;;
2023/10/05 04:44:37;;;;;;;6.6;3.2;;;;;;;7.71;87.75;;;;;
2023/10/05 04:54:39;;;;;;;6.6;3.2;;;;;;;7.63;88.44;;;;;
2023/10/05 05:04:52;;;;;;;6.6;3.2;;;;;;;7.63;87.94;;;;;
2023/10/05 05:15:38;;;;;;;6.6;2.9;;;;;;;7.72;87.85;;;;;
2023/10/05 05:25:37;;;;;;;6.6;2.9;;;;;;;7.84;87.88;;;;;
2023/10/05 05:36:36;;;;;;;9.1;2.9;;;;;;;8.12;88.37;;;;;
2023/10/05 05:46:36;;;;;;;9.1;2.9;;;;;;;8.51;88.44;;;;;
2023/10/05 05:57:36;;;;;;;9.1;2.9;;;;;;;8.76;87.09;;;;;
2023/10/05 06:08:36;;;;;;;6.9;3.4;;;;;;;9.13;86.48;;;;;
2023/10/05 06:19:36;;;;;;;6.9;3.4;;;;;;;9.77;86.55;;;;;
2023/10/05 06:29:36;;;;;;;6.9;3.4;;;;;;;10.5;83.93;;;;;
2023/10/05 06:39:36;;;;;;;7.1;3;;;;;;;11.2;82.25;;;;;
2023/10/05 06:50:37;;;;;;;7.1;3;;;;;;;11.63;80.38;;;;;
2023/10/05 07:00:36;;;;;;;7.1;3;;;;;;;12.14;78.76;;;;;
2023/10/05 07:11:37;;;;;;;10;4.1;;;;;;;12.99;77.5;;;;;
2023/10/05 07:21:36;;;;;;;10;4.1;;;;;;;13.65;75.02;;;;;
2023/10/05 07:31:37;;;;;;;10;4.1;;;;;;;14.19;71.48;;;;;
2023/10/05 07:41:36;;;;;;;7.5;3.7;;;;;;;14.65;70.18;;;;;
2023/10/05 07:52:38;;;;;;;7.5;3.7;;;;;;;15.42;69.87;;;;;
2023/10/05 08:02:37;;;;;;;7.5;3.7;;;;;;;15.72;66.99;;;;;
2023/10/05 08:13:36;;;;;;;6;2.9;;;;;;;15.75;66.41;;;;;
2023/10/05 08:23:36;;;;;;;6;2.9;;;;;;;16.39;67.77;;;;;
2023/10/05 08:34:40;;;;;;;6;2.9;;;;;;;16.34;63.64;;;;;
2023/10/05 08:44:38;;;;;;;6.1;2.7;;;;;;;16.54;62.38;;;;;
2023/10/05 08:55:36;;;;;;;6.1;2.7;;;;;;;16.75;63.9;;;;;
2023/10/05 09:05:36;;;;;;;6.2;2.9;;;;;;;17.19;63.43;;;;;
2023/10/05 09:16:41;;;;;;;6.2;2.9;;;;;;;17.39;59.08;;;;;
2023/10/05 09:26:39;;;;;;;6.2;2.9;;;;;;;17.43;56.8;;;;;
2023/10/05 09:37:36;;;;;;;5.1;2.4;;;;;;;17.43;56.21;;;;;
2023/10/05 09:47:36;;;;;;;5.1;2.4;;;;;;;17.86;55.13;;;;;
2023/10/05 09:58:39;;;;;;;5.1;2.4;;;;;;;17.97;54.71;;;;;
2023/10/05 10:08:42;;;;;;;4.9;2.2;;;;;;;18;56.11;;;;;
2023/10/05 10:19:45;;;;;;;4.9;2.2;;;;;;;18.35;52.77;;;;;
2023/10/05 10:29:37;;;;;;;4.9;2.2;;;;;;;18.41;53.42;;;;;
2023/10/05 10:39:37;;;;;;;7.4;2.5;;;;;;;18.59;52.68;;;;;
2023/10/05 10:50:37;;;;;;;7.4;2.5;;;;;;;18.61;52.63;;;;;
2023/10/05 11:01:44;;;;;;;7.4;2.5;;;;;;;18.8;52.38;;;;;
2023/10/05 11:16:26;;;;;;;4.2;2;;;;;;;18.78;53.32;;;;;
2023/10/05 11:26:33;;;;;;;4.2;2;;;;;;;18.97;51.3;;;;;
2023/10/05 11:36:27;;;;;;;5.5;2.6;;;;;;;19.26;51.62;;;;;
2023/10/05 11:46:24;;;;;;;5.5;2.6;;;;;;;18.98;52;;;;;
2023/10/05 11:56:30;;;;;;;5.5;2.6;;;;;;;19.18;52.79;;;;;
2023/10/05 12:07:25;;;;;;;6.7;3.2;;;;;;;19.41;52.04;;;;;
2023/10/05 12:18:24;;;;;;;6.7;3.2;;;;;;;19.1;51.86;;;;;
2023/10/05 12:28:24;;;;;;;6.7;3.2;;;;;;;19.19;53.03;;;;;
2023/10/05 12:38:25;;;;;;;6.2;2.8;;;;;;;18.9;52.89;;;;;
2023/10/05 12:49:24;;;;;;;6.2;2.8;;;;;;;18.79;53.53;;;;;
2023/10/05 12:59:24;;;;;;;6.2;2.8;;;;;;;18.71;54.97;;;;;
2023/10/05 13:09:25;;;;;;;6.5;2.3;;;;;;;18.63;54.81;;;;;
2023/10/05 13:20:25;;;;;;;6.5;2.3;;;;;;;18.59;54.81;;;;;
2023/10/05 13:31:25;;;;;;;6.5;2.3;;;;;;;18.29;54.19;;;;;
2023/10/05 13:41:26;;;;;;;6.4;3;;;;;;;18.2;55.34;;;;;
2023/10/05 13:51:24;;;;;;;6.4;3;;;;;;;18.11;53.04;;;;;
2023/10/05 14:01:24;;;;;;;6.4;3;;;;;;;18.19;54.25;;;;;
2023/10/05 14:12:28;;;;;;;8.1;3.3;;;;;;;18.13;52.43;;;;;
2023/10/05 14:23:24;;;;;;;8.1;3.3;;;;;;;18.24;51.4;;;;;
2023/10/05 14:34:26;;;;;;;8.1;3.3;;;;;;;18.52;51.15;;;;;
2023/10/05 14:45:26;;;;;;;8.1;3.5;;;;;;;18.21;52.82;;;;;
2023/10/05 14:55:25;;;;;;;8.1;3.5;;;;;;;17.92;54.3;;;;;
2023/10/05 15:06:24;;;;;;;8.1;4;;;;;;;17.73;56;;;;;
2023/10/05 15:17:24;;;;;;;8.1;4;;;;;;;17.53;57.74;;;;;
2023/10/05 15:27:25;;;;;;;8.1;4;;;;;;;17.03;59.44;;;;;
2023/10/05 15:38:24;;;;;;;9.7;4.8;;;;;;;16.72;60.55;;;;;
2023/10/05 15:49:26;;;;;;;9.7;4.8;;;;;;;16.33;62.01;;;;;
2023/10/05 16:00:25;;;;;;;9.7;4.8;;;;;;;15.96;63.46;;;;;
2023/10/05 16:11:24;;;;;;;11.3;5.1;;;;;;;15.47;65.19;;;;;
2023/10/05 16:21:24;;;;;;;11.3;5.1;;;;;;;15.1;66.63;;;;;
2023/10/05 16:32:24;;;;;;;11.3;5.1;;;;;;;14.87;66.55;;;;;
2023/10/05 16:43:25;;;;;;;10;5.4;;;;;;;14.57;68.27;;;;;
2023/10/05 16:54:25;;;;;;;10;5.4;;;;;;;14.32;68.96;;;;;
2023/10/05 17:05:25;;;;;;;10;5.4;;;;;;;13.96;70.69;;;;;
2023/10/05 17:15:24;;;;;;;12.9;5.8;;;;;;;13.65;71.33;;;;;
2023/10/05 17:25:26;;;;;;;12.9;5.8;;;;;;;13.49;72.29;;;;;
2023/10/05 17:35:24;;;;;;;13;7;;;;;;;13.3;73.28;;;;;
2023/10/05 17:45:24;;;;;;;13;7;;;;;;;13.09;73.97;;;;;
2023/10/05 17:56:24;;;;;;;13;7;;;;;;;12.9;74.5;;;;;
2023/10/05 18:06:24;;;;;;;10.9;4.6;;;;;;;12.72;74.36;;;;;
2023/10/05 18:17:25;;;;;;;10.9;4.6;;;;;;;12.53;75.26;;;;;
2023/10/05 18:28:25;;;;;;;10.9;4.6;;;;;;;12.47;75.76;;;;;
2023/10/05 18:38:24;;;;;;;10;4.2;;;;;;;12.45;75.92;;;;;
2023/10/05 18:49:24;;;;;;;10;4.2;;;;;;;12.29;76.07;;;;;
2023/10/05 18:59:24;;;;;;;10;4.2;;;;;;;12.36;77.14;;;;;
2023/10/05 19:10:24;;;;;;;10.2;4.5;;;;;;;12.6;76.52;;;;;
2023/10/05 19:21:24;;;;;;;10.2;4.5;;;;;;;12.77;76.46;;;;;
2023/10/05 19:32:24;;;;;;;10.2;4.5;;;;;;;12.99;75.42;;;;;
2023/10/05 19:42:24;;;;;;;10.3;5.1;;;;;;;13.12;75.22;;;;;
2023/10/05 19:52:24;;;;;;;10.3;5.1;;;;;;;13.26;74.22;;;;;
2023/10/05 20:03:24;;;;;;;10.3;5.1;;;;;;;13.36;74.11;;;;;
2023/10/05 20:14:24;;;;;;;15.4;9.1;;;;;;;13.46;74.03;;;;;
2023/10/05 20:25:24;;;;;;;15.4;9.1;;;;;;;13.46;74.3;;;;;
2023/10/05 20:35:24;;;;;;;16.7;11;;;;;;;13.48;73.93;;;;;
2023/10/05 20:45:24;;;;;;;16.7;11;;;;;;;13.55;74.22;;;;;
2023/10/05 20:55:24;;;;;;;16.7;11;;;;;;;13.63;73.32;;;;;
2023/10/05 21:06:24;;;;;;;16.7;12.6;;;;;;;13.71;72.81;;;;;
2023/10/05 21:16:25;;;;;;;16.7;12.6;;;;;;;13.79;72.34;;;;;
2023/10/05 21:26:24;;;;;;;16.7;12.6;;;;;;;13.84;71.58;;;;;
2023/10/05 21:37:24;;;;;;;14;10;;;;;;;13.89;71.56;;;;;
2023/10/05 21:48:24;;;;;;;14;10;;;;;;;13.84;72.18;;;;;
2023/10/05 21:58:24;;;;;;;14;10;;;;;;;13.86;72.04;;;;;
2023/10/05 22:09:26;;;;;;;12.1;7.5;;;;;;;13.84;73.44;;;;;
2023/10/05 22:20:24;;;;;;;12.1;7.5;;;;;;;13.61;76.75;;;;;
2023/10/05 22:30:24;;;;;;;12.1;7.5;;;;;;;13.39;79.36;;;;;
2023/10/05 22:40:24;;;;;;;10.2;6.3;;;;;;;13.37;79.89;;;;;
2023/10/05 22:51:24;;;;;;;10.2;6.3;;;;;;;13.31;80.4;;;;;
2023/10/05 23:01:25;;;;;;;10.2;6.3;;;;;;;13.18;80.5;;;;;
2023/10/05 23:12:24;;;;;;;12.4;5.5;;;;;;;13.08;80.63;;;;;
2023/10/05 23:22:24;;;;;;;12.4;5.5;;;;;;;13.11;81.18;;;;;
2023/10/05 23:32:25;;;;;;;12.4;5.5;;;;;;;13.06;81.43;;;;;
2023/10/05 23:43:25;;;;;;;9.7;4.3;;;;;;;13.2;81.12;;;;;
2023/10/05 23:53:24;;;;;;;9.7;4.3;;;;;;;13.02;81.89;;;;;
